sensor_id;sensor_type;location;lat;lon;timestamp;temperature;humidity
48998;DHT22;34807;51.456;7.244;2024-03-23T00:53:16;9.80;99.90
48998;DHT22;34807;51.456;7.244;2024-03-23T00:55:42;9.80;99.90
48998;DHT22;34807;51.456;7.244;2024-03-23T00:58:07;9.80;99.90
48998;DHT22;34807;51.456;7.244;2024-03-23T01:00:33;9.70;99.90
48998;DHT22;34807;51.456;7.244;2024-03-23T01:02:59;9.80;99.90
48998;DHT22;34807;51.456;7.244;2024-03-23T01:05:24;9.70;99.90
48998;DHT22;34807;51.456;7.244;2024-03-23T01:07:49;9.70;99.90
48998;DHT22;34807;51.456;7.244;2024-03-23T01:10:15;9.70;99.90
48998;DHT22;34807;51.456;7.244;2024-03-23T01:12:40;9.70;99.90
48998;DHT22;34807;51.456;7.244;2024-03-23T01:15:06;9.70;99.90
48998;DHT22;34807;51.456;7.244;2024-03-23T01:17:32;9.70;99.90
48998;DHT22;34807;51.456;7.244;2024-03-23T01:19:57;9.70;99.90
48998;DHT22;34807;51.456;7.244;2024-03-23T01:22:23;9.60;99.90
48998;DHT22;34807;51.456;7.244;2024-03-23T01:24:48;9.70;99.90
48998;DHT22;34807;51.456;7.244;2024-03-23T01:27:14;9.60;99.90
48998;DHT22;34807;51.456;7.244;2024-03-23T01:29:39;9.60;99.90
48998;DHT22;34807;51.456;7.244;2024-03-23T01:32:05;9.60;99.90
48998;DHT22;34807;51.456;7.244;2024-03-23T01:34:31;9.60;99.90
48998;DHT22;34807;51.456;7.244;2024-03-23T01:36:56;9.60;99.90
48998;DHT22;34807;51.456;7.244;2024-03-23T01:39:22;9.60;99.90
48998;DHT22;34807;51.456;7.244;2024-03-23T01:41:47;9.50;99.90
48998;DHT22;34807;51.456;7.244;2024-03-23T01:44:13;9.60;99.90
48998;DHT22;34807;51.456;7.244;2024-03-23T01:46:38;9.50;99.90
48998;DHT22;34807;51.456;7.244;2024-03-23T01:49:04;9.60;99.90
48998;DHT22;34807;51.456;7.244;2024-03-23T01:51:30;9.50;99.90
48998;DHT22;34807;51.456;7.244;2024-03-23T01:53:56;9.50;99.90
48998;DHT22;34807;51.456;7.244;2024-03-23T01:56:21;9.50;99.90
48998;DHT22;34807;51.456;7.244;2024-03-23T01:58:47;9.50;99.90
48998;DHT22;34807;51.456;7.244;2024-03-23T02:01:12;9.50;99.90
48998;DHT22;34807;51.456;7.244;2024-03-23T02:03:38;9.50;99.90
48998;DHT22;34807;51.456;7.244;2024-03-23T02:06:03;9.50;99.90
48998;DHT22;34807;51.456;7.244;2024-03-23T02:08:30;9.40;99.90
48998;DHT22;34807;51.456;7.244;2024-03-23T02:10:55;9.40;99.90
48998;DHT22;34807;51.456;7.244;2024-03-23T02:13:21;9.40;99.90
48998;DHT22;34807;51.456;7.244;2024-03-23T02:15:47;9.40;99.90
48998;DHT22;34807;51.456;7.244;2024-03-23T02:18:13;9.40;99.90
48998;DHT22;34807;51.456;7.244;2024-03-23T02:20:39;9.40;99.90
48998;DHT22;34807;51.456;7.244;2024-03-23T02:23:04;9.40;99.90
48998;DHT22;34807;51.456;7.244;2024-03-23T02:25:33;9.40;99.90
48998;DHT22;34807;51.456;7.244;2024-03-23T02:27:59;9.30;99.90
48998;DHT22;34807;51.456;7.244;2024-03-23T02:30:25;9.40;99.90
48998;DHT22;34807;51.456;7.244;2024-03-23T02:32:50;9.30;99.90
48998;DHT22;34807;51.456;7.244;2024-03-23T02:35:16;9.30;99.90
48998;DHT22;34807;51.456;7.244;2024-03-23T02:37:41;9.30;99.90
48998;DHT22;34807;51.456;7.244;2024-03-23T02:40:07;9.30;99.90
48998;DHT22;34807;51.456;7.244;2024-03-23T02:42:33;9.30;99.90
48998;DHT22;34807;51.456;7.244;2024-03-23T02:44:58;9.30;99.90
48998;DHT22;34807;51.456;7.244;2024-03-23T02:47:24;9.30;99.90
48998;DHT22;34807;51.456;7.244;2024-03-23T02:49:49;9.30;99.90
48998;DHT22;34807;51.456;7.244;2024-03-23T02:52:15;9.30;99.90
48998;DHT22;34807;51.456;7.244;2024-03-23T02:54:40;9.30;99.90
48998;DHT22;34807;51.456;7.244;2024-03-23T02:57:10;9.30;99.90
48998;DHT22;34807;51.456;7.244;2024-03-23T02:59:35;9.30;99.90
48998;DHT22;34807;51.456;7.244;2024-03-23T03:02:01;9.20;99.90
48998;DHT22;34807;51.456;7.244;2024-03-23T03:04:26;9.20;99.90
48998;DHT22;34807;51.456;7.244;2024-03-23T03:06:52;9.20;99.90
48998;DHT22;34807;51.456;7.244;2024-03-23T03:09:18;9.20;99.90
48998;DHT22;34807;51.456;7.244;2024-03-23T03:11:43;9.20;99.90
48998;DHT22;34807;51.456;7.244;2024-03-23T03:14:09;9.20;99.90
48998;DHT22;34807;51.456;7.244;2024-03-23T03:16:34;9.20;99.90
48998;DHT22;34807;51.456;7.244;2024-03-23T03:18:59;9.20;99.90
48998;DHT22;34807;51.456;7.244;2024-03-23T03:21:26;9.20;99.90
48998;DHT22;34807;51.456;7.244;2024-03-23T03:23:52;9.20;99.90
48998;DHT22;34807;51.456;7.244;2024-03-23T03:26:17;9.10;99.90
48998;DHT22;34807;51.456;7.244;2024-03-23T03:28:43;9.10;99.90
48998;DHT22;34807;51.456;7.244;2024-03-23T03:31:16;9.10;99.90
48998;DHT22;34807;51.456;7.244;2024-03-23T03:33:43;9.10;99.90
48998;DHT22;34807;51.456;7.244;2024-03-23T03:36:08;9.10;99.90
48998;DHT22;34807;51.456;7.244;2024-03-23T03:38:34;9.10;99.90
48998;DHT22;34807;51.456;7.244;2024-03-23T03:41:02;9.10;99.90
48998;DHT22;34807;51.456;7.244;2024-03-23T03:43:28;9.10;99.90
48998;DHT22;34807;51.456;7.244;2024-03-23T03:45:54;9.10;99.90
48998;DHT22;34807;51.456;7.244;2024-03-23T03:48:19;9.10;99.90
48998;DHT22;34807;51.456;7.244;2024-03-23T03:50:45;9.10;99.90
48998;DHT22;34807;51.456;7.244;2024-03-23T03:53:10;9.00;99.90
48998;DHT22;34807;51.456;7.244;2024-03-23T03:55:36;9.00;99.90
48998;DHT22;34807;51.456;7.244;2024-03-23T03:58:02;9.00;99.90
48998;DHT22;34807;51.456;7.244;2024-03-23T04:00:27;9.00;99.90
48998;DHT22;34807;51.456;7.244;2024-03-23T04:02:53;9.00;99.90
48998;DHT22;34807;51.456;7.244;2024-03-23T04:05:18;9.00;99.90
48998;DHT22;34807;51.456;7.244;2024-03-23T04:07:45;9.00;99.90
48998;DHT22;34807;51.456;7.244;2024-03-23T04:10:11;9.00;99.90
48998;DHT22;34807;51.456;7.244;2024-03-23T04:12:36;9.00;99.90
48998;DHT22;34807;51.456;7.244;2024-03-23T04:15:02;9.00;99.90
48998;DHT22;34807;51.456;7.244;2024-03-23T04:17:29;8.90;99.90
48998;DHT22;34807;51.456;7.244;2024-03-23T04:19:59;9.00;99.90
48998;DHT22;34807;51.456;7.244;2024-03-23T04:22:25;8.90;99.90
48998;DHT22;34807;51.456;7.244;2024-03-23T04:24:55;8.90;99.90
48998;DHT22;34807;51.456;7.244;2024-03-23T04:27:20;8.90;99.90
48998;DHT22;34807;51.456;7.244;2024-03-23T04:29:46;8.90;99.90
48998;DHT22;34807;51.456;7.244;2024-03-23T04:32:13;8.90;99.90
48998;DHT22;34807;51.456;7.244;2024-03-23T04:34:39;8.90;99.90
48998;DHT22;34807;51.456;7.244;2024-03-23T04:37:04;8.90;99.90
48998;DHT22;34807;51.456;7.244;2024-03-23T04:39:30;8.90;99.90
48998;DHT22;34807;51.456;7.244;2024-03-23T04:41:55;8.90;99.90
48998;DHT22;34807;51.456;7.244;2024-03-23T04:44:21;8.80;99.90
48998;DHT22;34807;51.456;7.244;2024-03-23T04:46:47;8.80;99.90
48998;DHT22;34807;51.456;7.244;2024-03-23T04:49:12;8.80;99.90
48998;DHT22;34807;51.456;7.244;2024-03-23T04:51:37;8.80;99.90
48998;DHT22;34807;51.456;7.244;2024-03-23T04:54:03;8.80;99.90
48998;DHT22;34807;51.456;7.244;2024-03-23T04:56:29;8.80;99.90
48998;DHT22;34807;51.456;7.244;2024-03-23T04:58:56;8.80;99.90
48998;DHT22;34807;51.456;7.244;2024-03-23T05:01:26;8.80;99.90
48998;DHT22;34807;51.456;7.244;2024-03-23T05:03:52;8.80;99.90
48998;DHT22;34807;51.456;7.244;2024-03-23T05:06:18;8.80;99.90
48998;DHT22;34807;51.456;7.244;2024-03-23T05:08:44;8.80;99.90
48998;DHT22;34807;51.456;7.244;2024-03-23T05:11:09;8.80;99.90
48998;DHT22;34807;51.456;7.244;2024-03-23T05:13:35;8.80;99.90
48998;DHT22;34807;51.456;7.244;2024-03-23T05:16:01;8.70;99.90
48998;DHT22;34807;51.456;7.244;2024-03-23T05:18:26;8.70;99.90
48998;DHT22;34807;51.456;7.244;2024-03-23T05:20:56;8.70;99.90
48998;DHT22;34807;51.456;7.244;2024-03-23T05:23:23;8.70;99.90
48998;DHT22;34807;51.456;7.244;2024-03-23T05:25:48;8.70;99.90
48998;DHT22;34807;51.456;7.244;2024-03-23T05:28:14;8.70;99.90
48998;DHT22;34807;51.456;7.244;2024-03-23T05:30:39;8.70;99.90
48998;DHT22;34807;51.456;7.244;2024-03-23T05:33:05;8.70;99.90
48998;DHT22;34807;51.456;7.244;2024-03-23T05:35:31;8.70;99.90
48998;DHT22;34807;51.456;7.244;2024-03-23T05:37:57;8.70;99.90
48998;DHT22;34807;51.456;7.244;2024-03-23T05:40:24;8.60;99.90
48998;DHT22;34807;51.456;7.244;2024-03-23T05:42:50;8.60;99.90
48998;DHT22;34807;51.456;7.244;2024-03-23T05:45:18;8.60;99.90
48998;DHT22;34807;51.456;7.244;2024-03-23T05:47:44;8.60;99.90
48998;DHT22;34807;51.456;7.244;2024-03-23T05:50:10;8.60;99.90
48998;DHT22;34807;51.456;7.244;2024-03-23T05:52:38;8.60;99.90
48998;DHT22;34807;51.456;7.244;2024-03-23T05:55:04;8.60;99.90
48998;DHT22;34807;51.456;7.244;2024-03-23T05:57:29;8.60;99.90
48998;DHT22;34807;51.456;7.244;2024-03-23T05:59:55;8.60;99.90
48998;DHT22;34807;51.456;7.244;2024-03-23T06:02:20;8.60;99.90
48998;DHT22;34807;51.456;7.244;2024-03-23T06:04:46;8.50;99.90
48998;DHT22;34807;51.456;7.244;2024-03-23T06:07:12;8.50;99.90
48998;DHT22;34807;51.456;7.244;2024-03-23T06:09:42;8.50;99.90
48998;DHT22;34807;51.456;7.244;2024-03-23T06:12:08;8.50;99.90
48998;DHT22;34807;51.456;7.244;2024-03-23T06:14:34;8.50;99.90
48998;DHT22;34807;51.456;7.244;2024-03-23T06:16:59;8.50;99.90
48998;DHT22;34807;51.456;7.244;2024-03-23T06:19:25;8.50;99.90
48998;DHT22;34807;51.456;7.244;2024-03-23T06:21:55;8.50;99.90
48998;DHT22;34807;51.456;7.244;2024-03-23T06:24:21;8.50;99.90
48998;DHT22;34807;51.456;7.244;2024-03-23T06:26:47;8.50;99.90
48998;DHT22;34807;51.456;7.244;2024-03-23T06:29:13;8.50;99.90
48998;DHT22;34807;51.456;7.244;2024-03-23T06:31:38;8.50;99.90
48998;DHT22;34807;51.456;7.244;2024-03-23T06:34:04;8.50;99.90
48998;DHT22;34807;51.456;7.244;2024-03-23T06:36:30;8.50;99.90
48998;DHT22;34807;51.456;7.244;2024-03-23T06:38:56;8.50;99.90
48998;DHT22;34807;51.456;7.244;2024-03-23T06:41:21;8.50;99.90
48998;DHT22;34807;51.456;7.244;2024-03-23T06:43:47;8.50;99.90
48998;DHT22;34807;51.456;7.244;2024-03-23T06:46:12;8.50;99.90
48998;DHT22;34807;51.456;7.244;2024-03-23T06:48:38;8.50;99.90
48998;DHT22;34807;51.456;7.244;2024-03-23T06:51:03;8.50;99.90
48998;DHT22;34807;51.456;7.244;2024-03-23T06:53:29;8.50;99.90
48998;DHT22;34807;51.456;7.244;2024-03-23T06:55:55;8.50;99.90
48998;DHT22;34807;51.456;7.244;2024-03-23T06:58:21;8.50;99.90
48998;DHT22;34807;51.456;7.244;2024-03-23T07:00:47;8.50;99.90
48998;DHT22;34807;51.456;7.244;2024-03-23T07:03:12;8.50;99.90
48998;DHT22;34807;51.456;7.244;2024-03-23T07:05:38;8.50;99.90
48998;DHT22;34807;51.456;7.244;2024-03-23T07:08:03;8.50;99.90
48998;DHT22;34807;51.456;7.244;2024-03-23T07:10:29;8.50;99.90
48998;DHT22;34807;51.456;7.244;2024-03-23T07:12:54;8.60;99.90
48998;DHT22;34807;51.456;7.244;2024-03-23T07:15:20;8.60;99.90
48998;DHT22;34807;51.456;7.244;2024-03-23T07:17:48;8.60;99.90
48998;DHT22;34807;51.456;7.244;2024-03-23T07:20:14;8.60;99.90
48998;DHT22;34807;51.456;7.244;2024-03-23T07:22:39;8.60;99.90
48998;DHT22;34807;51.456;7.244;2024-03-23T07:25:05;8.60;99.90
48998;DHT22;34807;51.456;7.244;2024-03-23T07:27:31;8.60;99.90
48998;DHT22;34807;51.456;7.244;2024-03-23T07:29:57;8.60;99.90
48998;DHT22;34807;51.456;7.244;2024-03-23T07:32:22;8.60;99.90
48998;DHT22;34807;51.456;7.244;2024-03-23T07:34:48;8.60;99.90
48998;DHT22;34807;51.456;7.244;2024-03-23T07:37:13;8.70;99.90
48998;DHT22;34807;51.456;7.244;2024-03-23T07:39:39;8.70;99.90
48998;DHT22;34807;51.456;7.244;2024-03-23T07:42:05;8.70;99.90
48998;DHT22;34807;51.456;7.244;2024-03-23T07:44:30;8.70;99.90
48998;DHT22;34807;51.456;7.244;2024-03-23T07:46:56;8.80;99.90
48998;DHT22;34807;51.456;7.244;2024-03-23T07:49:21;8.80;99.90
48998;DHT22;34807;51.456;7.244;2024-03-23T07:51:47;8.80;99.90
48998;DHT22;34807;51.456;7.244;2024-03-23T07:54:12;8.80;99.90
48998;DHT22;34807;51.456;7.244;2024-03-23T07:56:38;8.90;99.90
48998;DHT22;34807;51.456;7.244;2024-03-23T07:59:03;8.90;99.90
48998;DHT22;34807;51.456;7.244;2024-03-23T08:01:29;8.90;99.90
48998;DHT22;34807;51.456;7.244;2024-03-23T08:03:55;8.90;99.90
48998;DHT22;34807;51.456;7.244;2024-03-23T08:06:21;9.00;99.90
48998;DHT22;34807;51.456;7.244;2024-03-23T08:08:48;9.00;99.90
48998;DHT22;34807;51.456;7.244;2024-03-23T08:11:14;9.10;99.90
48998;DHT22;34807;51.456;7.244;2024-03-23T08:13:41;9.20;99.90
48998;DHT22;34807;51.456;7.244;2024-03-23T08:16:07;9.20;99.90
48998;DHT22;34807;51.456;7.244;2024-03-23T08:18:34;9.20;99.90
48998;DHT22;34807;51.456;7.244;2024-03-23T08:21:00;9.30;99.90
48998;DHT22;34807;51.456;7.244;2024-03-23T08:23:29;9.30;99.90
48998;DHT22;34807;51.456;7.244;2024-03-23T08:25:58;9.30;99.90
48998;DHT22;34807;51.456;7.244;2024-03-23T08:28:24;9.40;99.90
48998;DHT22;34807;51.456;7.244;2024-03-23T08:30:50;9.50;99.90
48998;DHT22;34807;51.456;7.244;2024-03-23T08:33:16;9.50;99.90
48998;DHT22;34807;51.456;7.244;2024-03-23T08:35:41;9.50;99.90
48998;DHT22;34807;51.456;7.244;2024-03-23T08:38:07;9.60;99.90
48998;DHT22;34807;51.456;7.244;2024-03-23T08:40:32;9.60;99.90
48998;DHT22;34807;51.456;7.244;2024-03-23T08:42:58;9.60;99.90
48998;DHT22;34807;51.456;7.244;2024-03-23T08:45:27;9.50;99.90
48998;DHT22;34807;51.456;7.244;2024-03-23T08:47:52;9.50;99.90
48998;DHT22;34807;51.456;7.244;2024-03-23T08:50:18;9.60;99.90
48998;DHT22;34807;51.456;7.244;2024-03-23T08:52:44;9.60;99.90
48998;DHT22;34807;51.456;7.244;2024-03-23T08:55:09;9.60;99.90
48998;DHT22;34807;51.456;7.244;2024-03-23T08:57:35;9.60;99.90
48998;DHT22;34807;51.456;7.244;2024-03-23T09:00:00;9.60;99.90
48998;DHT22;34807;51.456;7.244;2024-03-23T09:02:26;9.70;99.90
48998;DHT22;34807;51.456;7.244;2024-03-23T09:04:51;9.80;99.90
48998;DHT22;34807;51.456;7.244;2024-03-23T09:07:17;9.80;99.90
48998;DHT22;34807;51.456;7.244;2024-03-23T09:09:42;9.80;99.90
48998;DHT22;34807;51.456;7.244;2024-03-23T09:12:08;9.80;99.90
48998;DHT22;34807;51.456;7.244;2024-03-23T09:14:33;9.80;99.90
48998;DHT22;34807;51.456;7.244;2024-03-23T09:16:59;9.80;99.90
48998;DHT22;34807;51.456;7.244;2024-03-23T09:19:26;9.70;99.90
48998;DHT22;34807;51.456;7.244;2024-03-23T09:21:52;9.70;99.90
48998;DHT22;34807;51.456;7.244;2024-03-23T09:24:17;9.70;99.90
48998;DHT22;34807;51.456;7.244;2024-03-23T09:26:43;9.60;99.90
48998;DHT22;34807;51.456;7.244;2024-03-23T09:29:08;9.60;99.90
48998;DHT22;34807;51.456;7.244;2024-03-23T09:31:34;9.60;99.90
48998;DHT22;34807;51.456;7.244;2024-03-23T09:33:59;9.60;99.90
48998;DHT22;34807;51.456;7.244;2024-03-23T09:36:25;9.50;99.90
48998;DHT22;34807;51.456;7.244;2024-03-23T09:38:51;9.50;99.90
48998;DHT22;34807;51.456;7.244;2024-03-23T09:41:16;9.50;99.90
48998;DHT22;34807;51.456;7.244;2024-03-23T09:43:42;9.50;99.90
48998;DHT22;34807;51.456;7.244;2024-03-23T09:46:07;9.50;99.90
48998;DHT22;34807;51.456;7.244;2024-03-23T09:48:33;9.50;99.90
48998;DHT22;34807;51.456;7.244;2024-03-23T09:50:58;9.50;99.90
48998;DHT22;34807;51.456;7.244;2024-03-23T09:53:24;9.60;99.90
48998;DHT22;34807;51.456;7.244;2024-03-23T09:55:50;9.60;99.90
48998;DHT22;34807;51.456;7.244;2024-03-23T09:58:16;9.70;99.90
48998;DHT22;34807;51.456;7.244;2024-03-23T10:00:42;9.70;99.90
48998;DHT22;34807;51.456;7.244;2024-03-23T10:03:07;9.70;99.90
48998;DHT22;34807;51.456;7.244;2024-03-23T10:05:35;9.80;99.90
48998;DHT22;34807;51.456;7.244;2024-03-23T10:08:16;9.90;99.90
48998;DHT22;34807;51.456;7.244;2024-03-23T10:10:42;9.90;99.90
48998;DHT22;34807;51.456;7.244;2024-03-23T10:13:08;10.00;99.90
48998;DHT22;34807;51.456;7.244;2024-03-23T10:15:34;10.00;99.90
48998;DHT22;34807;51.456;7.244;2024-03-23T10:18:05;10.00;99.90
48998;DHT22;34807;51.456;7.244;2024-03-23T10:20:42;10.10;99.90
48998;DHT22;34807;51.456;7.244;2024-03-23T10:23:15;10.10;99.90
48998;DHT22;34807;51.456;7.244;2024-03-23T10:25:41;10.10;99.90
48998;DHT22;34807;51.456;7.244;2024-03-23T10:28:06;10.10;99.90
48998;DHT22;34807;51.456;7.244;2024-03-23T10:30:32;10.10;99.90
48998;DHT22;34807;51.456;7.244;2024-03-23T10:33:07;10.10;99.90
48998;DHT22;34807;51.456;7.244;2024-03-23T10:35:33;10.10;99.90
48998;DHT22;34807;51.456;7.244;2024-03-23T10:37:58;10.20;99.90
48998;DHT22;34807;51.456;7.244;2024-03-23T10:40:24;10.30;99.90
48998;DHT22;34807;51.456;7.244;2024-03-23T10:42:50;10.40;99.90
48998;DHT22;34807;51.456;7.244;2024-03-23T10:45:17;10.40;99.90
48998;DHT22;34807;51.456;7.244;2024-03-23T10:47:42;10.50;99.90
48998;DHT22;34807;51.456;7.244;2024-03-23T10:50:08;10.50;99.90
48998;DHT22;34807;51.456;7.244;2024-03-23T10:52:34;10.60;99.90
48998;DHT22;34807;51.456;7.244;2024-03-23T10:55:04;10.60;99.90
48998;DHT22;34807;51.456;7.244;2024-03-23T10:57:34;10.60;99.90
48998;DHT22;34807;51.456;7.244;2024-03-23T11:00:02;10.60;99.90
48998;DHT22;34807;51.456;7.244;2024-03-23T11:02:28;10.60;99.90
48998;DHT22;34807;51.456;7.244;2024-03-23T11:04:55;10.60;99.90
48998;DHT22;34807;51.456;7.244;2024-03-23T11:09:52;10.40;99.90
48998;DHT22;34807;51.456;7.244;2024-03-23T11:14:47;10.20;99.90
48998;DHT22;34807;51.456;7.244;2024-03-23T11:17:23;10.10;99.90
48998;DHT22;34807;51.456;7.244;2024-03-23T11:27:48;9.80;99.90
48998;DHT22;34807;51.456;7.244;2024-03-23T11:30:14;9.80;99.90
48998;DHT22;34807;51.456;7.244;2024-03-23T11:32:40;9.90;99.90
48998;DHT22;34807;51.456;7.244;2024-03-23T11:35:06;10.00;99.90
48998;DHT22;34807;51.456;7.244;2024-03-23T11:37:32;10.00;99.90
48998;DHT22;34807;51.456;7.244;2024-03-23T11:39:57;10.10;99.90
48998;DHT22;34807;51.456;7.244;2024-03-23T11:42:23;10.20;99.90
48998;DHT22;34807;51.456;7.244;2024-03-23T11:44:51;10.30;99.90
48998;DHT22;34807;51.456;7.244;2024-03-23T11:47:16;10.40;99.90
48998;DHT22;34807;51.456;7.244;2024-03-23T11:49:42;10.40;99.90
48998;DHT22;34807;51.456;7.244;2024-03-23T11:52:07;10.50;99.90
48998;DHT22;34807;51.456;7.244;2024-03-23T11:54:33;10.50;99.90
48998;DHT22;34807;51.456;7.244;2024-03-23T11:56:59;10.60;99.90
48998;DHT22;34807;51.456;7.244;2024-03-23T11:59:39;10.70;99.90
48998;DHT22;34807;51.456;7.244;2024-03-23T12:02:10;10.70;99.90
48998;DHT22;34807;51.456;7.244;2024-03-23T12:04:36;10.80;99.90
48998;DHT22;34807;51.456;7.244;2024-03-23T12:07:11;10.90;99.90
48998;DHT22;34807;51.456;7.244;2024-03-23T12:09:37;11.00;99.90
48998;DHT22;34807;51.456;7.244;2024-03-23T12:12:21;11.00;99.90
48998;DHT22;34807;51.456;7.244;2024-03-23T12:15:05;11.10;99.90
48998;DHT22;34807;51.456;7.244;2024-03-23T12:17:31;11.10;99.90
48998;DHT22;34807;51.456;7.244;2024-03-23T12:19:57;11.10;99.90
48998;DHT22;34807;51.456;7.244;2024-03-23T12:22:23;11.20;99.90
48998;DHT22;34807;51.456;7.244;2024-03-23T12:24:48;11.20;99.90
48998;DHT22;34807;51.456;7.244;2024-03-23T12:27:14;11.10;99.90
48998;DHT22;34807;51.456;7.244;2024-03-23T12:29:40;11.10;99.90
48998;DHT22;34807;51.456;7.244;2024-03-23T12:32:07;11.00;99.90
48998;DHT22;34807;51.456;7.244;2024-03-23T12:34:32;11.00;99.90
48998;DHT22;34807;51.456;7.244;2024-03-23T12:36:58;11.00;99.90
48998;DHT22;34807;51.456;7.244;2024-03-23T12:39:23;11.00;99.90
48998;DHT22;34807;51.456;7.244;2024-03-23T12:41:49;10.90;99.90
48998;DHT22;34807;51.456;7.244;2024-03-23T12:44:15;10.90;99.90
48998;DHT22;34807;51.456;7.244;2024-03-23T12:46:41;10.90;99.90
48998;DHT22;34807;51.456;7.244;2024-03-23T12:49:06;10.90;99.90
48998;DHT22;34807;51.456;7.244;2024-03-23T12:51:32;10.90;99.90
48998;DHT22;34807;51.456;7.244;2024-03-23T12:53:58;10.90;99.90
48998;DHT22;34807;51.456;7.244;2024-03-23T12:56:24;10.90;99.90
48998;DHT22;34807;51.456;7.244;2024-03-23T12:58:49;11.00;99.90
48998;DHT22;34807;51.456;7.244;2024-03-23T13:01:17;11.00;99.90
48998;DHT22;34807;51.456;7.244;2024-03-23T13:03:42;11.00;99.90
48998;DHT22;34807;51.456;7.244;2024-03-23T13:06:10;11.10;99.90
48998;DHT22;34807;51.456;7.244;2024-03-23T13:08:35;11.10;99.90
48998;DHT22;34807;51.456;7.244;2024-03-23T13:11:01;11.10;99.90
48998;DHT22;34807;51.456;7.244;2024-03-23T13:13:26;11.10;99.90
48998;DHT22;34807;51.456;7.244;2024-03-23T13:15:52;11.10;99.90
48998;DHT22;34807;51.456;7.244;2024-03-23T13:18:17;11.10;99.90
48998;DHT22;34807;51.456;7.244;2024-03-23T13:20:43;11.00;99.90
48998;DHT22;34807;51.456;7.244;2024-03-23T13:23:08;11.00;99.90
48998;DHT22;34807;51.456;7.244;2024-03-23T13:25:34;10.90;99.90
48998;DHT22;34807;51.456;7.244;2024-03-23T13:27:59;10.90;99.90
48998;DHT22;34807;51.456;7.244;2024-03-23T13:30:26;10.80;99.90
48998;DHT22;34807;51.456;7.244;2024-03-23T13:32:51;10.80;99.90
48998;DHT22;34807;51.456;7.244;2024-03-23T13:35:17;10.80;99.90
48998;DHT22;34807;51.456;7.244;2024-03-23T13:37:43;10.90;99.90
48998;DHT22;34807;51.456;7.244;2024-03-23T13:40:09;11.00;99.90
48998;DHT22;34807;51.456;7.244;2024-03-23T13:42:34;11.10;99.90
48998;DHT22;34807;51.456;7.244;2024-03-23T13:45:00;11.20;99.90
48998;DHT22;34807;51.456;7.244;2024-03-23T13:47:25;11.20;99.90
48998;DHT22;34807;51.456;7.244;2024-03-23T13:49:51;11.10;99.90
48998;DHT22;34807;51.456;7.244;2024-03-23T13:52:16;11.10;99.90
48998;DHT22;34807;51.456;7.244;2024-03-23T13:54:43;11.00;99.90
48998;DHT22;34807;51.456;7.244;2024-03-23T13:57:11;11.00;99.90
48998;DHT22;34807;51.456;7.244;2024-03-23T13:59:37;11.00;99.90
48998;DHT22;34807;51.456;7.244;2024-03-23T14:02:02;11.00;99.90
48998;DHT22;34807;51.456;7.244;2024-03-23T14:04:28;11.10;99.90
48998;DHT22;34807;51.456;7.244;2024-03-23T14:06:54;11.10;99.90
48998;DHT22;34807;51.456;7.244;2024-03-23T14:09:19;11.10;99.90
48998;DHT22;34807;51.456;7.244;2024-03-23T14:11:48;11.10;99.90
48998;DHT22;34807;51.456;7.244;2024-03-23T14:14:13;11.10;99.90
48998;DHT22;34807;51.456;7.244;2024-03-23T14:16:42;11.10;99.90
48998;DHT22;34807;51.456;7.244;2024-03-23T14:19:07;11.10;99.90
48998;DHT22;34807;51.456;7.244;2024-03-23T14:21:33;11.10;99.90
48998;DHT22;34807;51.456;7.244;2024-03-23T14:24:00;11.10;99.80
48998;DHT22;34807;51.456;7.244;2024-03-23T14:26:26;11.20;99.90
48998;DHT22;34807;51.456;7.244;2024-03-23T14:28:52;11.20;99.90
48998;DHT22;34807;51.456;7.244;2024-03-23T14:31:17;11.20;99.90
48998;DHT22;34807;51.456;7.244;2024-03-23T14:33:43;11.20;99.90
48998;DHT22;34807;51.456;7.244;2024-03-23T14:36:16;11.20;99.80
48998;DHT22;34807;51.456;7.244;2024-03-23T14:38:47;11.10;99.90
48998;DHT22;34807;51.456;7.244;2024-03-23T14:41:13;11.10;99.90
48998;DHT22;34807;51.456;7.244;2024-03-23T14:43:39;11.10;99.90
48998;DHT22;34807;51.456;7.244;2024-03-23T14:46:11;11.10;99.80
48998;DHT22;34807;51.456;7.244;2024-03-23T14:48:38;11.20;99.90
48998;DHT22;34807;51.456;7.244;2024-03-23T14:51:04;11.20;99.40
48998;DHT22;34807;51.456;7.244;2024-03-23T14:53:31;11.40;99.40
48998;DHT22;34807;51.456;7.244;2024-03-23T14:55:56;11.40;98.80
48998;DHT22;34807;51.456;7.244;2024-03-23T14:58:22;11.50;98.80
48998;DHT22;34807;51.456;7.244;2024-03-23T15:00:48;11.60;98.50
48998;DHT22;34807;51.456;7.244;2024-03-23T15:03:14;11.60;98.40
48998;DHT22;34807;51.456;7.244;2024-03-23T15:05:39;11.70;98.10
48998;DHT22;34807;51.456;7.244;2024-03-23T15:08:05;11.70;98.10
48998;DHT22;34807;51.456;7.244;2024-03-23T15:10:32;11.80;98.30
48998;DHT22;34807;51.456;7.244;2024-03-23T15:12:58;11.80;98.30
48998;DHT22;34807;51.456;7.244;2024-03-23T15:15:23;11.70;98.10
48998;DHT22;34807;51.456;7.244;2024-03-23T15:17:49;11.70;98.50
48998;DHT22;34807;51.456;7.244;2024-03-23T15:20:15;11.60;98.50
48998;DHT22;34807;51.456;7.244;2024-03-23T15:22:41;11.70;98.50
48998;DHT22;34807;51.456;7.244;2024-03-23T15:25:07;11.70;98.50
48998;DHT22;34807;51.456;7.244;2024-03-23T15:27:33;11.70;98.50
48998;DHT22;34807;51.456;7.244;2024-03-23T15:29:59;11.70;98.50
48998;DHT22;34807;51.456;7.244;2024-03-23T15:32:24;11.60;98.70
48998;DHT22;34807;51.456;7.244;2024-03-23T15:34:50;11.50;98.90
48998;DHT22;34807;51.456;7.244;2024-03-23T15:37:15;11.50;99.10
48998;DHT22;34807;51.456;7.244;2024-03-23T15:39:41;11.80;98.60
48998;DHT22;34807;51.456;7.244;2024-03-23T15:42:07;12.10;98.70
48998;DHT22;34807;51.456;7.244;2024-03-23T15:44:32;12.50;97.90
48998;DHT22;34807;51.456;7.244;2024-03-23T15:46:58;12.60;97.50
48998;DHT22;34807;51.456;7.244;2024-03-23T15:49:24;12.60;97.20
48998;DHT22;34807;51.456;7.244;2024-03-23T15:51:49;12.80;97.30
48998;DHT22;34807;51.456;7.244;2024-03-23T15:54:15;13.00;96.70
48998;DHT22;34807;51.456;7.244;2024-03-23T15:56:40;13.20;96.30
48998;DHT22;34807;51.456;7.244;2024-03-23T15:59:06;13.20;95.70
48998;DHT22;34807;51.456;7.244;2024-03-23T16:01:35;13.00;96.10
48998;DHT22;34807;51.456;7.244;2024-03-23T16:04:03;13.00;96.60
48998;DHT22;34807;51.456;7.244;2024-03-23T16:06:29;13.00;96.70
48998;DHT22;34807;51.456;7.244;2024-03-23T16:08:54;13.30;96.60
48998;DHT22;34807;51.456;7.244;2024-03-23T16:11:20;13.60;95.90
48998;DHT22;34807;51.456;7.244;2024-03-23T16:13:46;13.80;95.90
48998;DHT22;34807;51.456;7.244;2024-03-23T16:16:11;13.90;95.30
48998;DHT22;34807;51.456;7.244;2024-03-23T16:18:37;14.00;95.30
48998;DHT22;34807;51.456;7.244;2024-03-23T16:21:06;14.10;95.30
48998;DHT22;34807;51.456;7.244;2024-03-23T16:23:35;14.10;95.30
48998;DHT22;34807;51.456;7.244;2024-03-23T16:26:03;14.10;95.50
48998;DHT22;34807;51.456;7.244;2024-03-23T16:28:29;14.10;95.10
48998;DHT22;34807;51.456;7.244;2024-03-23T16:30:59;13.90;95.50
48998;DHT22;34807;51.456;7.244;2024-03-23T16:33:25;13.80;95.80
48998;DHT22;34807;51.456;7.244;2024-03-23T16:36:00;13.80;96.00
48998;DHT22;34807;51.456;7.244;2024-03-23T16:38:26;13.80;95.90